sensor_id;sensor_type;location;lat;lon;timestamp;pressure;altitude;pressure_sealevel;temperature;humidity
69245;BME280;56357;52.304;4.870;2023-03-04T00:01:49;102961.34;;;17.94;49.77
69245;BME280;56357;52.304;4.870;2023-03-04T00:04:16;102957.69;;;17.94;49.57
69245;BME280;56357;52.304;4.870;2023-03-04T00:06:43;102961.75;;;17.98;49.25
69245;BME280;56357;52.304;4.870;2023-03-04T00:09:09;102952.53;;;17.91;49.57
69245;BME280;56357;52.304;4.870;2023-03-04T00:11:36;102952.28;;;17.92;49.42
69245;BME280;56357;52.304;4.870;2023-03-04T00:14:02;102960.91;;;17.97;49.41
69245;BME280;56357;52.304;4.870;2023-03-04T00:16:29;102961.34;;;17.94;49.47
69245;BME280;56357;52.304;4.870;2023-03-04T00:18:56;102961.41;;;17.88;49.65
69245;BME280;56357;52.304;4.870;2023-03-04T00:21:23;102961.00;;;17.84;49.56
69245;BME280;56357;52.304;4.870;2023-03-04T00:23:49;102964.88;;;17.83;49.67
69245;BME280;56357;52.304;4.870;2023-03-04T00:26:16;102964.66;;;17.85;49.24
69245;BME280;56357;52.304;4.870;2023-03-04T00:28:43;102957.34;;;17.84;48.92
69245;BME280;56357;52.304;4.870;2023-03-04T00:31:10;102959.75;;;17.80;49.52
69245;BME280;56357;52.304;4.870;2023-03-04T00:33:36;102960.81;;;17.79;49.42
69245;BME280;56357;52.304;4.870;2023-03-04T00:36:04;102960.66;;;17.74;49.46
69245;BME280;56357;52.304;4.870;2023-03-04T00:38:31;102954.41;;;17.72;49.50
69245;BME280;56357;52.304;4.870;2023-03-04T00:40:57;102956.34;;;17.72;49.48
69245;BME280;56357;52.304;4.870;2023-03-04T00:43:24;102950.34;;;17.68;49.25
69245;BME280;56357;52.304;4.870;2023-03-04T00:45:50;102956.13;;;17.73;49.20
69245;BME280;56357;52.304;4.870;2023-03-04T00:48:16;102956.34;;;17.72;49.02
69245;BME280;56357;52.304;4.870;2023-03-04T00:50:43;102952.28;;;17.68;49.53
69245;BME280;56357;52.304;4.870;2023-03-04T00:53:09;102954.03;;;17.69;49.84
69245;BME280;56357;52.304;4.870;2023-03-04T00:55:36;102955.97;;;17.68;49.27
69245;BME280;56357;52.304;4.870;2023-03-04T00:58:02;102967.41;;;17.67;49.63
69245;BME280;56357;52.304;4.870;2023-03-04T01:00:29;102967.63;;;17.65;49.37
69245;BME280;56357;52.304;4.870;2023-03-04T01:02:55;102967.84;;;17.64;49.58
69245;BME280;56357;52.304;4.870;2023-03-04T01:05:22;102961.19;;;17.58;49.41
69245;BME280;56357;52.304;4.870;2023-03-04T01:07:49;102960.13;;;17.59;49.58
69245;BME280;56357;52.304;4.870;2023-03-04T01:10:15;102962.06;;;17.59;49.39
69245;BME280;56357;52.304;4.870;2023-03-04T01:12:42;102965.53;;;17.54;49.66
69245;BME280;56357;52.304;4.870;2023-03-04T01:15:10;102961.03;;;17.53;49.86
69245;BME280;56357;52.304;4.870;2023-03-04T01:17:36;102961.91;;;17.54;49.32
69245;BME280;56357;52.304;4.870;2023-03-04T01:20:04;102958.22;;;17.53;49.12
69245;BME280;56357;52.304;4.870;2023-03-04T01:22:31;102960.16;;;17.53;49.36
69245;BME280;56357;52.304;4.870;2023-03-04T01:24:57;102943.59;;;17.51;49.25
69245;BME280;56357;52.304;4.870;2023-03-04T01:27:24;102948.31;;;17.51;49.61
69245;BME280;56357;52.304;4.870;2023-03-04T01:29:50;102942.94;;;17.42;49.53
69245;BME280;56357;52.304;4.870;2023-03-04T01:32:17;102946.19;;;17.46;49.47
69245;BME280;56357;52.304;4.870;2023-03-04T01:34:43;102945.75;;;17.49;49.34
69245;BME280;56357;52.304;4.870;2023-03-04T01:37:10;102941.84;;;17.50;49.46
69245;BME280;56357;52.304;4.870;2023-03-04T01:39:37;102946.00;;;17.41;49.68
69245;BME280;56357;52.304;4.870;2023-03-04T01:42:04;102945.31;;;17.46;49.45
69245;BME280;56357;52.304;4.870;2023-03-04T01:44:31;102933.28;;;17.38;49.01
69245;BME280;56357;52.304;4.870;2023-03-04T01:46:58;102933.09;;;17.40;49.30
69245;BME280;56357;52.304;4.870;2023-03-04T01:49:24;102926.16;;;17.42;49.29
69245;BME280;56357;52.304;4.870;2023-03-04T01:51:53;102925.47;;;17.47;48.98
69245;BME280;56357;52.304;4.870;2023-03-04T01:54:21;102919.72;;;17.42;49.21
69245;BME280;56357;52.304;4.870;2023-03-04T01:56:49;102922.31;;;17.37;49.45
69245;BME280;56357;52.304;4.870;2023-03-04T01:59:21;102920.63;;;17.36;49.44
69245;BME280;56357;52.304;4.870;2023-03-04T02:01:48;102913.47;;;17.40;49.43
69245;BME280;56357;52.304;4.870;2023-03-04T02:04:17;102914.38;;;17.34;49.40
69245;BME280;56357;52.304;4.870;2023-03-04T02:06:45;102906.72;;;17.23;49.26
69245;BME280;56357;52.304;4.870;2023-03-04T02:09:14;102901.75;;;17.25;49.55
69245;BME280;56357;52.304;4.870;2023-03-04T02:11:41;102898.94;;;17.25;49.30
69245;BME280;56357;52.304;4.870;2023-03-04T02:14:10;102892.00;;;17.27;49.40
69245;BME280;56357;52.304;4.870;2023-03-04T02:16:37;102894.56;;;17.29;49.43
69245;BME280;56357;52.304;4.870;2023-03-04T02:19:25;102896.53;;;17.28;49.90
69245;BME280;56357;52.304;4.870;2023-03-04T02:21:55;102891.78;;;17.29;49.10
69245;BME280;56357;52.304;4.870;2023-03-04T02:24:28;102885.09;;;17.30;49.54
69245;BME280;56357;52.304;4.870;2023-03-04T02:26:56;102874.56;;;17.25;49.46
69245;BME280;56357;52.304;4.870;2023-03-04T02:29:23;102878.19;;;17.32;49.72
69245;BME280;56357;52.304;4.870;2023-03-04T02:31:51;102873.22;;;17.34;48.99
69245;BME280;56357;52.304;4.870;2023-03-04T02:34:24;102872.53;;;17.39;49.32
69245;BME280;56357;52.304;4.870;2023-03-04T02:36:53;102865.91;;;17.33;49.07
69245;BME280;56357;52.304;4.870;2023-03-04T02:41:51;102863.72;;;17.35;49.41
69245;BME280;56357;52.304;4.870;2023-03-04T02:44:24;102862.34;;;17.20;49.76
69245;BME280;56357;52.304;4.870;2023-03-04T02:46:52;102861.84;;;17.29;49.68
69245;BME280;56357;52.304;4.870;2023-03-04T02:49:20;102864.19;;;17.32;49.46
69245;BME280;56357;52.304;4.870;2023-03-04T02:51:57;102862.69;;;17.30;49.30
69245;BME280;56357;52.304;4.870;2023-03-04T02:54:24;102859.03;;;17.29;49.25
69245;BME280;56357;52.304;4.870;2023-03-04T02:56:53;102851.78;;;17.22;49.85
69245;BME280;56357;52.304;4.870;2023-03-04T02:59:21;102848.53;;;17.25;49.78
69245;BME280;56357;52.304;4.870;2023-03-04T03:01:48;102857.34;;;17.28;49.76
69245;BME280;56357;52.304;4.870;2023-03-04T03:04:15;102848.06;;;17.28;49.41
69245;BME280;56357;52.304;4.870;2023-03-04T03:06:42;102848.69;;;17.30;49.58
69245;BME280;56357;52.304;4.870;2023-03-04T03:09:08;102853.66;;;17.28;49.55
69245;BME280;56357;52.304;4.870;2023-03-04T03:11:35;102848.97;;;17.22;49.66
69245;BME280;56357;52.304;4.870;2023-03-04T03:14:02;102844.34;;;17.09;50.17
69245;BME280;56357;52.304;4.870;2023-03-04T03:16:29;102837.53;;;17.23;49.71
69245;BME280;56357;52.304;4.870;2023-03-04T03:18:56;102838.88;;;17.21;49.81
69245;BME280;56357;52.304;4.870;2023-03-04T03:21:22;102841.44;;;17.22;49.49
69245;BME280;56357;52.304;4.870;2023-03-04T03:23:48;102844.09;;;17.11;50.20
69245;BME280;56357;52.304;4.870;2023-03-04T03:26:16;102840.91;;;17.07;50.32
69245;BME280;56357;52.304;4.870;2023-03-04T03:28:42;102836.97;;;17.15;49.70
69245;BME280;56357;52.304;4.870;2023-03-04T03:31:09;102832.63;;;17.19;49.95
69245;BME280;56357;52.304;4.870;2023-03-04T03:33:35;102837.38;;;17.18;49.65
69245;BME280;56357;52.304;4.870;2023-03-04T03:36:02;102845.25;;;17.28;49.79
69245;BME280;56357;52.304;4.870;2023-03-04T03:38:29;102846.84;;;17.17;50.20
69245;BME280;56357;52.304;4.870;2023-03-04T03:40:56;102848.47;;;17.00;50.38
69245;BME280;56357;52.304;4.870;2023-03-04T03:43:22;102843.13;;;17.23;49.79
69245;BME280;56357;52.304;4.870;2023-03-04T03:45:48;102845.72;;;17.25;49.78
69245;BME280;56357;52.304;4.870;2023-03-04T03:48:16;102842.09;;;17.18;49.80
69245;BME280;56357;52.304;4.870;2023-03-04T03:50:43;102852.53;;;17.04;50.47
69245;BME280;56357;52.304;4.870;2023-03-04T03:53:09;102844.91;;;17.18;49.68
69245;BME280;56357;52.304;4.870;2023-03-04T03:55:36;102839.78;;;17.15;50.14
69245;BME280;56357;52.304;4.870;2023-03-04T03:58:03;102841.31;;;17.11;49.98
69245;BME280;56357;52.304;4.870;2023-03-04T04:00:29;102840.84;;;17.14;50.19
69245;BME280;56357;52.304;4.870;2023-03-04T04:02:57;102836.69;;;17.23;49.68
69245;BME280;56357;52.304;4.870;2023-03-04T04:05:25;102834.94;;;17.28;49.82
69245;BME280;56357;52.304;4.870;2023-03-04T04:07:52;102831.63;;;17.07;50.16
69245;BME280;56357;52.304;4.870;2023-03-04T04:10:18;102836.28;;;17.19;49.73
69245;BME280;56357;52.304;4.870;2023-03-04T04:12:45;102839.28;;;17.24;49.82
69245;BME280;56357;52.304;4.870;2023-03-04T04:15:12;102835.25;;;17.14;50.46
69245;BME280;56357;52.304;4.870;2023-03-04T04:17:39;102838.63;;;17.22;50.15
69245;BME280;56357;52.304;4.870;2023-03-04T04:20:06;102835.19;;;17.20;50.03
69245;BME280;56357;52.304;4.870;2023-03-04T04:22:33;102836.06;;;17.21;49.99
69245;BME280;56357;52.304;4.870;2023-03-04T04:25:00;102844.66;;;17.19;50.08
69245;BME280;56357;52.304;4.870;2023-03-04T04:27:26;102837.78;;;17.22;50.21
69245;BME280;56357;52.304;4.870;2023-03-04T04:29:53;102830.00;;;17.24;50.04
69245;BME280;56357;52.304;4.870;2023-03-04T04:32:20;102830.03;;;17.17;50.47
69245;BME280;56357;52.304;4.870;2023-03-04T04:34:46;102833.47;;;17.19;50.14
69245;BME280;56357;52.304;4.870;2023-03-04T04:37:12;102833.03;;;17.22;50.03
69245;BME280;56357;52.304;4.870;2023-03-04T04:39:39;102832.44;;;17.14;50.38
69245;BME280;56357;52.304;4.870;2023-03-04T04:42:05;102828.94;;;17.25;49.99
69245;BME280;56357;52.304;4.870;2023-03-04T04:44:31;102840.13;;;17.25;50.14
69245;BME280;56357;52.304;4.870;2023-03-04T04:46:58;102835.50;;;17.06;50.59
69245;BME280;56357;52.304;4.870;2023-03-04T04:49:24;102840.81;;;17.20;50.31
69245;BME280;56357;52.304;4.870;2023-03-04T04:51:51;102838.78;;;17.27;50.49
69245;BME280;56357;52.304;4.870;2023-03-04T04:54:17;102830.88;;;17.24;50.00
69245;BME280;56357;52.304;4.870;2023-03-04T04:56:44;102837.13;;;17.20;50.11
69245;BME280;56357;52.304;4.870;2023-03-04T04:59:10;102834.97;;;17.22;50.18
69245;BME280;56357;52.304;4.870;2023-03-04T05:01:37;102832.63;;;17.19;50.51
69245;BME280;56357;52.304;4.870;2023-03-04T05:04:03;102839.69;;;17.21;50.15
69245;BME280;56357;52.304;4.870;2023-03-04T05:06:30;102839.03;;;17.26;50.34
69245;BME280;56357;52.304;4.870;2023-03-04T05:08:56;102841.06;;;17.12;50.41
69245;BME280;56357;52.304;4.870;2023-03-04T05:11:23;102845.16;;;17.10;50.69
69245;BME280;56357;52.304;4.870;2023-03-04T05:13:49;102839.66;;;17.28;50.20
69245;BME280;56357;52.304;4.870;2023-03-04T05:16:16;102837.34;;;17.25;50.63
69245;BME280;56357;52.304;4.870;2023-03-04T05:18:43;102840.53;;;17.28;49.94
69245;BME280;56357;52.304;4.870;2023-03-04T05:21:09;102854.72;;;17.27;50.18
69245;BME280;56357;52.304;4.870;2023-03-04T05:23:38;102841.16;;;17.30;49.72
69245;BME280;56357;52.304;4.870;2023-03-04T05:26:06;102858.75;;;17.13;50.55
69245;BME280;56357;52.304;4.870;2023-03-04T05:28:33;102852.38;;;17.30;50.20
69245;BME280;56357;52.304;4.870;2023-03-04T05:31:00;102851.13;;;17.20;50.42
69245;BME280;56357;52.304;4.870;2023-03-04T05:33:27;102850.34;;;17.13;50.65
69245;BME280;56357;52.304;4.870;2023-03-04T05:35:53;102848.81;;;17.17;50.43
69245;BME280;56357;52.304;4.870;2023-03-04T05:38:20;102847.19;;;17.27;50.50
69245;BME280;56357;52.304;4.870;2023-03-04T05:40:48;102843.84;;;17.19;50.32
69245;BME280;56357;52.304;4.870;2023-03-04T05:43:15;102844.88;;;17.24;50.43
69245;BME280;56357;52.304;4.870;2023-03-04T05:45:42;102847.16;;;17.34;50.25
69245;BME280;56357;52.304;4.870;2023-03-04T05:48:08;102840.97;;;17.25;50.36
69245;BME280;56357;52.304;4.870;2023-03-04T05:50:35;102837.03;;;17.33;50.23
69245;BME280;56357;52.304;4.870;2023-03-04T05:53:02;102844.34;;;17.34;50.21
69245;BME280;56357;52.304;4.870;2023-03-04T05:55:28;102837.66;;;17.35;50.22
69245;BME280;56357;52.304;4.870;2023-03-04T05:57:55;102841.72;;;17.39;50.01
69245;BME280;56357;52.304;4.870;2023-03-04T06:00:22;102836.00;;;17.27;50.35
69245;BME280;56357;52.304;4.870;2023-03-04T06:02:49;102839.00;;;17.32;50.20
69245;BME280;56357;52.304;4.870;2023-03-04T06:05:15;102840.41;;;17.42;49.95
69245;BME280;56357;52.304;4.870;2023-03-04T06:07:42;102832.25;;;17.40;49.84
69245;BME280;56357;52.304;4.870;2023-03-04T06:10:13;102836.34;;;17.37;50.19
69245;BME280;56357;52.304;4.870;2023-03-04T06:12:40;102845.44;;;17.33;50.29
69245;BME280;56357;52.304;4.870;2023-03-04T06:15:08;102835.59;;;17.24;50.37
69245;BME280;56357;52.304;4.870;2023-03-04T06:17:35;102833.16;;;17.34;49.98
69245;BME280;56357;52.304;4.870;2023-03-04T06:20:03;102841.59;;;17.27;50.26
69245;BME280;56357;52.304;4.870;2023-03-04T06:22:31;102833.78;;;17.36;50.16
69245;BME280;56357;52.304;4.870;2023-03-04T06:24:57;102845.22;;;17.34;50.03
69245;BME280;56357;52.304;4.870;2023-03-04T06:27:23;102844.13;;;17.35;50.07
69245;BME280;56357;52.304;4.870;2023-03-04T06:29:50;102838.63;;;17.22;50.50
69245;BME280;56357;52.304;4.870;2023-03-04T06:32:17;102852.75;;;17.34;50.50
69245;BME280;56357;52.304;4.870;2023-03-04T06:34:43;102846.53;;;17.32;50.56
69245;BME280;56357;52.304;4.870;2023-03-04T06:37:10;102857.84;;;17.44;49.65
69245;BME280;56357;52.304;4.870;2023-03-04T06:39:36;102851.84;;;17.40;50.18
69245;BME280;56357;52.304;4.870;2023-03-04T06:42:03;102851.53;;;17.23;50.64
69245;BME280;56357;52.304;4.870;2023-03-04T06:44:29;102854.94;;;17.32;50.46
69245;BME280;56357;52.304;4.870;2023-03-04T06:46:56;102862.22;;;17.33;50.47
69245;BME280;56357;52.304;4.870;2023-03-04T06:49:22;102855.72;;;17.39;50.35
69245;BME280;56357;52.304;4.870;2023-03-04T06:51:49;102857.63;;;17.45;50.09
69245;BME280;56357;52.304;4.870;2023-03-04T06:54:15;102854.66;;;17.40;49.87
69245;BME280;56357;52.304;4.870;2023-03-04T06:56:42;102872.25;;;17.47;49.88
69245;BME280;56357;52.304;4.870;2023-03-04T06:59:08;102866.25;;;17.44;49.88
69245;BME280;56357;52.304;4.870;2023-03-04T07:01:35;102863.78;;;17.29;50.61
69245;BME280;56357;52.304;4.870;2023-03-04T07:04:02;102865.22;;;17.38;50.21
69245;BME280;56357;52.304;4.870;2023-03-04T07:06:29;102864.72;;;17.48;50.14
69245;BME280;56357;52.304;4.870;2023-03-04T07:08:56;102855.34;;;17.35;50.70
69245;BME280;56357;52.304;4.870;2023-03-04T07:11:23;102852.28;;;17.68;50.88
69245;BME280;56357;52.304;4.870;2023-03-04T07:13:49;102858.25;;;17.54;49.99
69245;BME280;56357;52.304;4.870;2023-03-04T07:16:19;102855.44;;;17.47;50.80
69245;BME280;56357;52.304;4.870;2023-03-04T07:18:46;102853.47;;;17.54;50.55
69245;BME280;56357;52.304;4.870;2023-03-04T07:21:14;102851.31;;;17.56;51.29
69245;BME280;56357;52.304;4.870;2023-03-04T07:23:42;102848.09;;;17.77;50.94
69245;BME280;56357;52.304;4.870;2023-03-04T07:26:08;102850.59;;;17.85;51.46
69245;BME280;56357;52.304;4.870;2023-03-04T07:28:35;102870.16;;;17.92;51.76
69245;BME280;56357;52.304;4.870;2023-03-04T07:33:34;102867.69;;;18.20;51.35
69245;BME280;56357;52.304;4.870;2023-03-04T07:36:01;102866.78;;;18.26;51.37
69245;BME280;56357;52.304;4.870;2023-03-04T07:38:27;102871.06;;;18.47;51.04
69245;BME280;56357;52.304;4.870;2023-03-04T07:40:58;102867.22;;;18.41;51.61
69245;BME280;56357;52.304;4.870;2023-03-04T07:43:24;102870.72;;;18.37;52.27
69245;BME280;56357;52.304;4.870;2023-03-04T07:45:51;102877.22;;;18.19;53.15
69245;BME280;56357;52.304;4.870;2023-03-04T07:48:17;102871.59;;;18.19;52.70
69245;BME280;56357;52.304;4.870;2023-03-04T07:50:44;102878.72;;;17.97;52.68
69245;BME280;56357;52.304;4.870;2023-03-04T07:53:10;102878.34;;;17.93;53.07
69245;BME280;56357;52.304;4.870;2023-03-04T07:55:36;102877.50;;;18.11;52.62
69245;BME280;56357;52.304;4.870;2023-03-04T07:58:03;102873.44;;;18.25;51.89
69245;BME280;56357;52.304;4.870;2023-03-04T08:00:29;102876.97;;;18.20;51.65
69245;BME280;56357;52.304;4.870;2023-03-04T08:02:56;102886.41;;;18.26;52.01
69245;BME280;56357;52.304;4.870;2023-03-04T08:05:22;102882.44;;;18.34;51.46
69245;BME280;56357;52.304;4.870;2023-03-04T08:07:49;102883.66;;;18.19;52.79
69245;BME280;56357;52.304;4.870;2023-03-04T08:10:15;102879.16;;;18.18;52.05
69245;BME280;56357;52.304;4.870;2023-03-04T08:12:42;102881.94;;;18.37;52.07
69245;BME280;56357;52.304;4.870;2023-03-04T08:15:08;102881.50;;;18.58;51.25
69245;BME280;56357;52.304;4.870;2023-03-04T08:17:35;102890.16;;;19.04;50.03
69245;BME280;56357;52.304;4.870;2023-03-04T08:20:02;102887.09;;;18.40;50.81
69245;BME280;56357;52.304;4.870;2023-03-04T08:22:28;102888.03;;;18.34;51.31
69245;BME280;56357;52.304;4.870;2023-03-04T08:24:55;102899.75;;;18.31;51.52
69245;BME280;56357;52.304;4.870;2023-03-04T08:27:21;102895.97;;;18.18;51.35
69245;BME280;56357;52.304;4.870;2023-03-04T08:29:48;102890.69;;;18.28;51.94
69245;BME280;56357;52.304;4.870;2023-03-04T08:32:14;102890.69;;;18.28;51.87
69245;BME280;56357;52.304;4.870;2023-03-04T08:34:40;102889.47;;;18.43;51.03
69245;BME280;56357;52.304;4.870;2023-03-04T08:37:07;102888.34;;;18.25;51.49
69245;BME280;56357;52.304;4.870;2023-03-04T08:39:33;102888.91;;;18.34;51.19
69245;BME280;56357;52.304;4.870;2023-03-04T08:42:02;102886.94;;;18.35;51.46
69245;BME280;56357;52.304;4.870;2023-03-04T08:44:28;102887.41;;;18.32;51.70
69245;BME280;56357;52.304;4.870;2023-03-04T08:46:55;102890.84;;;18.34;51.96
69245;BME280;56357;52.304;4.870;2023-03-04T08:49:21;102897.06;;;18.36;51.93
69245;BME280;56357;52.304;4.870;2023-03-04T08:51:48;102890.75;;;18.22;52.24
69245;BME280;56357;52.304;4.870;2023-03-04T08:54:14;102889.44;;;18.24;51.55
69245;BME280;56357;52.304;4.870;2023-03-04T08:56:41;102892.41;;;18.11;52.45
69245;BME280;56357;52.304;4.870;2023-03-04T08:59:07;102894.09;;;18.12;52.38
69245;BME280;56357;52.304;4.870;2023-03-04T09:01:34;102893.03;;;18.32;51.73
69245;BME280;56357;52.304;4.870;2023-03-04T09:04:00;102885.22;;;18.15;51.91
69245;BME280;56357;52.304;4.870;2023-03-04T09:06:27;102891.31;;;18.31;51.81
69245;BME280;56357;52.304;4.870;2023-03-04T09:08:53;102887.09;;;18.40;51.25
69245;BME280;56357;52.304;4.870;2023-03-04T09:11:20;102882.19;;;18.35;51.59
69245;BME280;56357;52.304;4.870;2023-03-04T09:13:46;102876.69;;;18.47;50.96
69245;BME280;56357;52.304;4.870;2023-03-04T09:16:14;102872.69;;;18.54;50.72
69245;BME280;56357;52.304;4.870;2023-03-04T09:18:41;102870.84;;;18.48;50.78
69245;BME280;56357;52.304;4.870;2023-03-04T09:21:09;102880.75;;;18.51;51.06
69245;BME280;56357;52.304;4.870;2023-03-04T09:23:36;102868.66;;;18.50;50.92
69245;BME280;56357;52.304;4.870;2023-03-04T09:26:32;102879.56;;;18.40;51.11
69245;BME280;56357;52.304;4.870;2023-03-04T09:29:00;102867.88;;;18.43;50.99
69245;BME280;56357;52.304;4.870;2023-03-04T09:31:27;102872.47;;;18.38;51.16
69245;BME280;56357;52.304;4.870;2023-03-04T09:33:55;102879.31;;;18.42;51.43
69245;BME280;56357;52.304;4.870;2023-03-04T09:36:22;102879.09;;;18.43;51.11
69245;BME280;56357;52.304;4.870;2023-03-04T09:38:49;102876.69;;;18.47;51.09
69245;BME280;56357;52.304;4.870;2023-03-04T09:41:20;102870.28;;;18.40;51.44
69245;BME280;56357;52.304;4.870;2023-03-04T09:43:48;102873.25;;;18.45;50.94
69245;BME280;56357;52.304;4.870;2023-03-04T09:46:25;102872.63;;;18.61;50.50
69245;BME280;56357;52.304;4.870;2023-03-04T09:48:54;102878.88;;;18.63;50.66
69245;BME280;56357;52.304;4.870;2023-03-04T09:51:44;102872.94;;;18.71;50.40
69245;BME280;56357;52.304;4.870;2023-03-04T09:54:17;102869.03;;;18.72;50.48
69245;BME280;56357;52.304;4.870;2023-03-04T09:56:50;102863.91;;;18.69;50.33
69245;BME280;56357;52.304;4.870;2023-03-04T09:59:24;102866.53;;;18.64;50.47
69245;BME280;56357;52.304;4.870;2023-03-04T10:01:57;102861.84;;;18.76;50.39
69245;BME280;56357;52.304;4.870;2023-03-04T10:04:40;102859.97;;;18.70;50.76
69245;BME280;56357;52.304;4.870;2023-03-04T10:07:16;102854.00;;;18.66;50.38
69245;BME280;56357;52.304;4.870;2023-03-04T10:09:46;102853.75;;;18.68;50.52
69245;BME280;56357;52.304;4.870;2023-03-04T10:12:17;102858.28;;;18.69;50.22
69245;BME280;56357;52.304;4.870;2023-03-04T10:14:48;102860.78;;;18.77;49.95
69245;BME280;56357;52.304;4.870;2023-03-04T10:17:36;102864.66;;;18.76;50.15
69245;BME280;56357;52.304;4.870;2023-03-04T10:20:14;102858.16;;;18.75;50.06
69245;BME280;56357;52.304;4.870;2023-03-04T10:22:48;102860.91;;;18.82;49.92
69245;BME280;56357;52.304;4.870;2023-03-04T10:25:30;102855.16;;;18.88;49.66
69245;BME280;56357;52.304;4.870;2023-03-04T10:28:33;102851.91;;;18.91;49.92
69245;BME280;56357;52.304;4.870;2023-03-04T10:33:41;102838.38;;;19.00;49.70
69245;BME280;56357;52.304;4.870;2023-03-04T10:39:02;102850.06;;;18.85;50.22
69245;BME280;56357;52.304;4.870;2023-03-04T10:41:30;102843.44;;;18.80;50.20
69245;BME280;56357;52.304;4.870;2023-03-04T10:46:39;102852.47;;;18.82;50.33
69245;BME280;56357;52.304;4.870;2023-03-04T10:49:06;102848.72;;;18.88;50.02
69245;BME280;56357;52.304;4.870;2023-03-04T10:51:51;102845.91;;;18.88;50.12
69245;BME280;56357;52.304;4.870;2023-03-04T10:54:34;102851.53;;;18.88;50.21
69245;BME280;56357;52.304;4.870;2023-03-04T10:57:13;102846.66;;;18.95;50.20
69245;BME280;56357;52.304;4.870;2023-03-04T10:59:58;102837.28;;;19.01;50.04
69245;BME280;56357;52.304;4.870;2023-03-04T11:02:35;102840.59;;;18.98;50.59
69245;BME280;56357;52.304;4.870;2023-03-04T11:07:28;102843.81;;;19.13;51.71
69245;BME280;56357;52.304;4.870;2023-03-04T11:09:54;102838.66;;;19.10;51.39
69245;BME280;56357;52.304;4.870;2023-03-04T11:12:31;102839.91;;;19.14;50.93
69245;BME280;56357;52.304;4.870;2023-03-04T11:14:58;102838.81;;;19.15;50.98
69245;BME280;56357;52.304;4.870;2023-03-04T11:17:41;102840.22;;;19.06;50.87
69245;BME280;56357;52.304;4.870;2023-03-04T11:20:11;102843.16;;;18.99;50.67
69245;BME280;56357;52.304;4.870;2023-03-04T11:22:40;102844.00;;;19.00;50.78
69245;BME280;56357;52.304;4.870;2023-03-04T11:25:20;102837.41;;;19.06;50.48
69245;BME280;56357;52.304;4.870;2023-03-04T11:27:53;102841.28;;;18.93;51.01
69245;BME280;56357;52.304;4.870;2023-03-04T11:30:29;102846.91;;;18.93;51.43
69245;BME280;56357;52.304;4.870;2023-03-04T11:33:08;102840.72;;;19.03;50.55
69245;BME280;56357;52.304;4.870;2023-03-04T11:35:43;102841.84;;;19.13;50.48
69245;BME280;56357;52.304;4.870;2023-03-04T11:38:35;102836.34;;;19.07;49.92
69245;BME280;56357;52.304;4.870;2023-03-04T11:41:13;102833.38;;;19.02;49.75
69245;BME280;56357;52.304;4.870;2023-03-04T11:43:42;102832.28;;;19.03;49.86
69245;BME280;56357;52.304;4.870;2023-03-04T11:49:28;102831.44;;;19.02;49.50
69245;BME280;56357;52.304;4.870;2023-03-04T12:08:38;102826.28;;;18.88;50.10
69245;BME280;56357;52.304;4.870;2023-03-04T12:14:29;102822.66;;;19.10;48.92
69245;BME280;56357;52.304;4.870;2023-03-04T12:22:37;102807.94;;;18.85;49.66
69245;BME280;56357;52.304;4.870;2023-03-04T12:25:32;102810.13;;;18.83;49.70
69245;BME280;56357;52.304;4.870;2023-03-04T12:28:24;102806.84;;;18.86;49.07
69245;BME280;56357;52.304;4.870;2023-03-04T12:44:46;102784.44;;;19.21;49.36
69245;BME280;56357;52.304;4.870;2023-03-04T12:47:28;102778.47;;;19.17;48.85
69245;BME280;56357;52.304;4.870;2023-03-04T12:53:29;102775.63;;;19.06;49.36
69245;BME280;56357;52.304;4.870;2023-03-04T12:55:59;102772.63;;;19.07;49.67
69245;BME280;56357;52.304;4.870;2023-03-04T12:58:30;102769.81;;;19.19;49.05
69245;BME280;56357;52.304;4.870;2023-03-04T13:01:10;102768.63;;;19.27;49.68
69245;BME280;56357;52.304;4.870;2023-03-04T13:06:41;102764.03;;;19.02;49.70
69245;BME280;56357;52.304;4.870;2023-03-04T13:09:31;102763.56;;;19.05;49.85
69245;BME280;56357;52.304;4.870;2023-03-04T13:12:19;102757.81;;;19.12;49.56
69245;BME280;56357;52.304;4.870;2023-03-04T13:22:59;102759.41;;;19.08;49.35
69245;BME280;56357;52.304;4.870;2023-03-04T13:25:35;102762.47;;;19.06;49.22
69245;BME280;56357;52.304;4.870;2023-03-04T13:28:23;102750.50;;;19.11;49.06
69245;BME280;56357;52.304;4.870;2023-03-04T13:43:41;102734.88;;;19.03;49.09
69245;BME280;56357;52.304;4.870;2023-03-04T13:56:46;102722.25;;;21.44;43.59
69245;BME280;56357;52.304;4.870;2023-03-04T13:59:26;102721.81;;;21.52;43.69
69245;BME280;56357;52.304;4.870;2023-03-04T14:01:56;102710.47;;;21.47;43.40
69245;BME280;56357;52.304;4.870;2023-03-04T14:04:31;102711.34;;;21.69;42.97
69245;BME280;56357;52.304;4.870;2023-03-04T14:06:59;102717.41;;;21.61;43.18
69245;BME280;56357;52.304;4.870;2023-03-04T14:09:31;102721.03;;;21.40;43.67
69245;BME280;56357;52.304;4.870;2023-03-04T14:12:00;102716.22;;;21.57;43.35
69245;BME280;56357;52.304;4.870;2023-03-04T14:14:47;102710.41;;;21.64;43.09
69245;BME280;56357;52.304;4.870;2023-03-04T14:17:25;102721.97;;;21.62;43.18
69245;BME280;56357;52.304;4.870;2023-03-04T14:19:52;102716.22;;;21.74;42.87
69245;BME280;56357;52.304;4.870;2023-03-04T14:22:28;102711.59;;;21.68;43.14
69245;BME280;56357;52.304;4.870;2023-03-04T14:27:22;102708.78;;;21.68;43.17
69245;BME280;56357;52.304;4.870;2023-03-04T14:29:57;102716.59;;;21.61;43.18
69245;BME280;56357;52.304;4.870;2023-03-04T14:32:25;102712.31;;;21.58;43.45
69245;BME280;56357;52.304;4.870;2023-03-04T14:35:02;102715.47;;;21.62;43.17
69245;BME280;56357;52.304;4.870;2023-03-04T14:37:52;102710.84;;;21.56;43.42
69245;BME280;56357;52.304;4.870;2023-03-04T14:40:26;102702.72;;;21.59;43.38